Time;durP1;ratioP1;P1;durP2;ratioP2;P2;SDS_P1;SDS_P2;PMS_P1;PMS_P2;Temp;Humidity;BMP_temperature;BMP_pressure;BME280_temperature;BME280_humidity;BME280_pressure;Samples;Min_cycle;Max_cycle;Signal;HPM_P1;HPM_P2
2022/04/21 00:01:16;;;;;;;15.88;10.75;;;26.70;85.50;;;;;;1831101;77;21749;-72
2022/04/21 00:03:47;;;;;;;17.37;10.63;;;26.70;85.80;;;;;;1826670;78;21148;-73
2022/04/21 00:06:18;;;;;;;15.75;11.63;;;26.70;85.60;;;;;;1859270;76;21043;-73
2022/04/21 00:08:50;;;;;;;15.43;9.88;;;26.80;85.80;;;;;;1874425;75;21595;-73
2022/04/21 00:11:21;;;;;;;15.35;10.03;;;26.80;85.50;;;;;;1830995;77;21726;-72
2022/04/21 00:13:52;;;;;;;12.33;10.03;;;26.80;85.40;;;;;;1818937;78;21093;-72
2022/04/21 00:16:25;;;;;;;17.52;10.18;;;26.80;85.30;;;;;;1833604;77;21211;-72
2022/04/21 00:18:56;;;;;;;14.58;11.33;;;26.80;85.40;;;;;;1822122;77;21534;-72
2022/04/21 00:23:26;;;;;;;21.05;13.53;;;26.90;85.10;;;;;;1840576;76;21164;-72
2022/04/21 00:24:01;;;;;;;15.72;11.12;;;26.90;85.40;;;;;;1818142;77;21145;-72
2022/04/21 00:26:45;;;;;;;13.03;9.33;;;27.00;85.20;;;;;;1864438;75;21516;-73
2022/04/21 00:29:18;;;;;;;12.10;8.90;;;27.00;84.70;;;;;;1863775;76;21077;-72
2022/04/21 00:31:50;;;;;;;12.93;9.25;;;27.00;84.70;;;;;;1873417;76;21726;-73
2022/04/21 00:34:22;;;;;;;11.22;8.55;;;27.00;84.50;;;;;;1838635;77;21093;-76
2022/04/21 00:36:53;;;;;;;12.15;9.53;;;27.00;84.50;;;;;;1854392;76;21101;-73
2022/04/21 00:39:24;;;;;;;12.70;9.18;;;27.00;84.70;;;;;;1831503;78;21195;-71
2022/04/21 00:41:58;;;;;;;11.48;8.35;;;27.00;84.60;;;;;;1875203;76;22452;-72
2022/04/21 00:44:30;;;;;;;13.20;9.75;;;27.00;84.50;;;;;;1865648;76;21624;-72
2022/04/21 00:47:05;;;;;;;16.00;9.25;;;27.10;84.40;;;;;;1842438;77;21711;-73
2022/04/21 00:49:36;;;;;;;10.08;8.48;;;27.10;84.40;;;;;;1854448;76;21571;-72
2022/04/21 00:52:08;;;;;;;13.65;8.50;;;27.20;83.90;;;;;;1838027;77;21195;-73
2022/04/21 00:54:39;;;;;;;11.08;8.78;;;27.30;83.60;;;;;;1813019;78;21086;-73
2022/04/21 00:57:11;;;;;;;11.18;7.97;;;27.30;83.40;;;;;;1793075;79;21199;-72
2022/04/21 00:59:45;;;;;;;12.28;9.00;;;27.40;83.10;;;;;;1841191;77;21069;-73
2022/04/21 01:04:49;;;;;;;11.65;8.15;;;27.50;82.70;;;;;;1846576;77;22019;-72
2022/04/21 01:07:20;;;;;;;9.73;7.47;;;27.50;82.90;;;;;;1847923;77;21193;-72
2022/04/21 01:09:52;;;;;;;13.43;8.15;;;27.60;82.90;;;;;;1854074;77;21134;-82
2022/04/21 01:12:23;;;;;;;11.75;7.72;;;27.60;82.80;;;;;;1853429;77;21542;-82
2022/04/21 01:14:58;;;;;;;10.10;7.67;;;27.60;82.40;;;;;;1841829;77;21088;-82
2022/04/21 01:17:35;;;;;;;12.53;9.58;;;27.70;83.30;;;;;;1833372;77;21640;-82
2022/04/21 01:20:09;;;;;;;11.45;8.33;;;27.60;82.50;;;;;;1830982;77;21538;-85
2022/04/21 01:22:40;;;;;;;12.15;8.30;;;27.70;82.50;;;;;;1849331;77;21637;-82
2022/04/21 01:25:11;;;;;;;12.82;9.20;;;27.80;82.20;;;;;;1859544;77;21173;-83
2022/04/21 01:27:43;;;;;;;10.58;7.70;;;27.80;82.30;;;;;;1857701;77;21095;-82
2022/04/21 01:30:15;;;;;;;10.88;8.55;;;27.90;81.90;;;;;;1858814;77;21149;-83
2022/04/21 01:32:51;;;;;;;11.85;8.20;;;28.00;81.80;;;;;;1805725;78;21186;-82
2022/04/21 01:35:20;;;;;;;12.88;8.20;;;28.00;81.60;;;;;;1809924;79;21148;-82
2022/04/21 01:42:55;;;;;;;12.93;8.93;;;28.10;81.50;;;;;;1853770;77;21089;-83
2022/04/21 01:45:26;;;;;;;12.37;9.05;;;28.10;81.50;;;;;;1841429;77;21079;-83
2022/04/21 01:47:58;;;;;;;11.55;8.85;;;28.20;81.50;;;;;;1833566;77;21161;-82
2022/04/21 01:50:29;;;;;;;12.78;8.88;;;28.30;81.40;;;;;;1836082;77;21209;-83
2022/04/21 01:53:01;;;;;;;11.03;8.28;;;28.40;80.80;;;;;;1835213;77;21095;-83
2022/04/21 01:55:32;;;;;;;12.58;8.50;;;28.40;80.60;;;;;;1863417;77;21104;-83
2022/04/21 01:58:03;;;;;;;12.82;9.28;;;28.50;80.60;;;;;;1842686;77;21165;-82
2022/04/21 02:00:34;;;;;;;13.30;9.73;;;28.50;80.50;;;;;;1847773;77;21147;-83
2022/04/21 02:03:06;;;;;;;14.45;9.40;;;28.70;80.50;;;;;;1851936;77;21158;-82
2022/04/21 02:05:37;;;;;;;13.03;9.68;;;28.80;80.20;;;;;;1851127;77;21158;-82
2022/04/21 02:08:08;;;;;;;11.90;9.18;;;28.90;79.70;;;;;;1855832;77;21089;-82
2022/04/21 02:10:42;;;;;;;12.28;8.63;;;29.00;79.80;;;;;;1875476;76;21186;-83
2022/04/21 02:13:13;;;;;;;17.23;9.28;;;29.10;79.10;;;;;;1865489;76;21149;-81
2022/04/21 02:15:46;;;;;;;11.90;9.00;;;29.20;78.70;;;;;;1847411;77;21112;-82
2022/04/21 02:18:17;;;;;;;11.22;8.58;;;29.20;78.50;;;;;;1855888;77;21162;-82
2022/04/21 02:20:48;;;;;;;15.70;9.15;;;29.30;78.30;;;;;;1838424;77;21176;-82
2022/04/21 02:23:22;;;;;;;14.95;9.50;;;29.40;79.10;;;;;;1843758;77;21143;-82
2022/04/21 02:25:56;;;;;;;14.75;9.48;;;29.50;78.20;;;;;;1849743;77;21090;-81
2022/04/21 02:28:27;;;;;;;12.78;8.85;;;29.60;78.20;;;;;;1829998;77;21227;-82
2022/04/21 02:30:58;;;;;;;13.98;8.50;;;29.70;77.90;;;;;;1838870;77;21126;-82
2022/04/21 02:33:29;;;;;;;14.87;8.93;;;29.80;77.80;;;;;;1839701;77;21545;-81
2022/04/21 02:36:00;;;;;;;12.40;9.28;;;29.90;77.60;;;;;;1844402;77;21151;-81
2022/04/21 02:38:31;;;;;;;13.55;9.83;;;30.00;77.00;;;;;;1856735;77;21109;-80
2022/04/21 02:41:04;;;;;;;12.00;8.80;;;30.10;77.00;;;;;;1845315;77;21130;-81
2022/04/21 02:43:38;;;;;;;16.45;9.70;;;30.20;77.30;;;;;;1835935;77;21102;-82
2022/04/21 02:46:13;;;;;;;15.53;9.18;;;30.30;76.60;;;;;;1858249;77;21103;-83
2022/04/21 02:48:44;;;;;;;11.63;8.05;;;30.40;76.20;;;;;;1842002;77;21060;-84
2022/04/21 02:51:18;;;;;;;11.10;8.85;;;30.50;75.50;;;;;;1837056;77;21087;-83
2022/04/21 02:58:54;;;;;;;12.30;8.38;;;30.80;73.80;;;;;;1827972;77;21099;-83
2022/04/21 03:01:25;;;;;;;13.03;8.90;;;30.90;74.10;;;;;;1840239;77;21144;-83
2022/04/21 03:03:57;;;;;;;11.35;9.43;;;31.00;74.30;;;;;;1837211;77;21251;-83
2022/04/21 03:06:27;;;;;;;13.62;9.73;;;31.10;74.30;;;;;;1861742;76;21168;-83
2022/04/21 03:08:58;;;;;;;12.85;9.43;;;31.20;73.50;;;;;;1872985;76;21205;-83
2022/04/21 03:11:29;;;;;;;14.47;9.10;;;31.30;73.40;;;;;;1890812;75;21199;-83
2022/04/21 03:14:00;;;;;;;16.57;9.30;;;31.40;72.80;;;;;;1850591;76;21142;-83
2022/04/21 03:16:31;;;;;;;13.28;8.68;;;31.40;72.80;;;;;;1857119;76;21082;-83
2022/04/21 03:19:02;;;;;;;13.75;8.68;;;31.40;73.10;;;;;;1875704;76;21251;-85
2022/04/21 03:26:37;;;;;;;15.20;8.85;;;31.60;72.30;;;;;;1858848;76;21160;-83
2022/04/21 03:29:08;;;;;;;14.63;9.18;;;31.60;72.50;;;;;;1859462;76;21098;-83
2022/04/21 03:31:43;;;;;;;12.93;8.98;;;31.60;72.00;;;;;;1852190;76;21095;-84
2022/04/21 03:34:14;;;;;;;11.48;8.98;;;31.60;71.90;;;;;;1868113;76;21129;-84
2022/04/21 03:36:48;;;;;;;14.03;9.28;;;31.60;71.40;;;;;;1856715;75;21510;-83
2022/04/21 03:39:21;;;;;;;14.98;9.03;;;31.60;71.20;;;;;;1856295;75;21193;-84
2022/04/21 03:41:53;;;;;;;18.17;9.03;;;31.50;71.20;;;;;;1870717;75;21616;-84
2022/04/21 03:44:25;;;;;;;10.23;8.35;;;31.50;70.70;;;;;;1866575;75;21141;-83
2022/04/21 03:46:58;;;;;;;10.63;8.35;;;31.50;71.40;;;;;;1860248;76;21086;-83
2022/04/21 03:49:29;;;;;;;16.27;9.35;;;31.40;70.50;;;;;;1871162;76;21130;-84
2022/04/21 03:52:00;;;;;;;13.32;9.10;;;31.40;71.70;;;;;;1881310;76;21606;-84
2022/04/21 03:54:34;;;;;;;14.58;9.38;;;31.40;71.60;;;;;;1860153;76;21487;-83
2022/04/21 03:57:07;;;;;;;15.88;9.18;;;31.30;71.30;;;;;;1859282;76;21110;-84
2022/04/21 03:59:38;;;;;;;13.62;8.63;;;31.30;71.80;;;;;;1844866;76;21106;-84
2022/04/21 04:04:52;;;;;;;11.57;8.60;;;31.30;71.00;;;;;;1843992;76;21141;-83
2022/04/21 04:12:42;;;;;;;11.43;8.30;;;31.30;69.90;;;;;;1855567;77;21087;-84
2022/04/21 04:15:13;;;;;;;12.15;10.15;;;31.30;69.80;;;;;;1870883;76;21149;-84
2022/04/21 04:17:46;;;;;;;13.35;9.43;;;31.40;70.00;;;;;;1872771;76;21083;-83
2022/04/21 04:20:20;;;;;;;13.43;9.05;;;31.40;70.20;;;;;;1880668;75;21154;-83
2022/04/21 04:22:51;;;;;;;13.13;8.25;;;31.50;70.00;;;;;;1867491;75;21091;-83
2022/04/21 04:25:22;;;;;;;14.93;8.43;;;31.60;69.60;;;;;;1858212;76;21070;-84
2022/04/21 04:27:53;;;;;;;14.18;9.43;;;31.70;69.60;;;;;;1853441;77;21137;-84
2022/04/21 04:30:28;;;;;;;13.77;8.80;;;31.70;68.90;;;;;;1851801;74;21545;-83
2022/04/21 04:32:59;;;;;;;15.83;9.33;;;31.90;68.50;;;;;;1852649;77;21126;-84
2022/04/21 04:35:31;;;;;;;12.23;8.88;;;32.00;68.40;;;;;;1867522;77;21156;-83
2022/04/21 04:38:02;;;;;;;11.08;8.35;;;32.20;67.70;;;;;;1862983;77;21114;-85
2022/04/21 04:40:33;;;;;;;13.95;9.40;;;32.40;66.90;;;;;;1842644;76;21118;-84
2022/04/21 04:43:04;;;;;;;13.22;9.03;;;32.50;66.70;;;;;;1843833;77;21180;-83
2022/04/21 04:48:09;;;;;;;12.47;8.58;;;32.60;65.90;;;;;;1849398;77;21103;-83
2022/04/21 04:50:40;;;;;;;13.68;8.50;;;32.60;65.90;;;;;;1858376;76;21063;-84
2022/04/21 04:53:11;;;;;;;11.33;8.78;;;32.60;65.70;;;;;;1809750;78;21073;-83
2022/04/21 04:55:42;;;;;;;13.55;9.25;;;32.50;65.30;;;;;;1775089;79;21148;-83
2022/04/21 04:58:15;;;;;;;11.30;8.88;;;32.40;65.50;;;;;;1787992;80;21156;-82
2022/04/21 05:00:48;;;;;;;10.72;8.53;;;32.30;65.80;;;;;;1766777;80;21107;-82
2022/04/21 05:03:19;;;;;;;12.88;9.28;;;32.30;66.00;;;;;;1764913;80;21090;-82
2022/04/21 05:05:51;;;;;;;14.13;9.23;;;32.10;66.40;;;;;;1780784;80;21156;-81
2022/04/21 05:08:22;;;;;;;11.85;9.15;;;32.10;66.30;;;;;;1782683;79;21078;-82
2022/04/21 05:10:53;;;;;;;12.15;8.88;;;32.30;67.10;;;;;;1798869;79;21219;-84
2022/04/21 05:13:27;;;;;;;12.18;10.03;;;32.50;65.70;;;;;;1757633;79;21121;-85
2022/04/21 05:15:58;;;;;;;14.03;9.58;;;32.60;66.30;;;;;;1843563;77;21057;-84
2022/04/21 05:18:29;;;;;;;13.65;9.38;;;32.60;65.50;;;;;;1853945;77;21154;-85
2022/04/21 05:21:00;;;;;;;13.48;9.68;;;32.80;66.30;;;;;;1851774;77;21137;-85
2022/04/21 05:23:36;;;;;;;18.52;11.30;;;32.80;64.70;;;;;;1842411;77;22592;-83
2022/04/21 05:26:06;;;;;;;15.30;10.20;;;32.90;65.10;;;;;;1845835;77;21149;-84
2022/04/21 05:28:37;;;;;;;12.80;9.50;;;33.00;64.70;;;;;;1853264;77;21515;-85
2022/04/21 05:31:11;;;;;;;17.92;9.90;;;33.20;63.90;;;;;;1850182;77;21097;-85
2022/04/21 05:33:42;;;;;;;15.45;10.15;;;33.20;64.50;;;;;;1825796;77;21555;-84
2022/04/21 05:36:14;;;;;;;11.12;9.03;;;33.30;63.70;;;;;;1850157;77;21189;-85
2022/04/21 05:38:46;;;;;;;18.45;9.95;;;33.30;63.30;;;;;;1865501;76;21174;-84
2022/04/21 05:41:18;;;;;;;13.78;9.95;;;33.40;62.40;;;;;;1861803;76;21208;-83
2022/04/21 05:43:50;;;;;;;12.00;10.08;;;;;;;;;;1843675;77;21082;-86
2022/04/21 05:46:22;;;;;;;15.83;10.03;;;33.70;60.00;;;;;;1858627;77;21076;-85
2022/04/21 05:48:54;;;;;;;16.45;10.35;;;33.90;60.20;;;;;;1837796;77;21142;-84
2022/04/21 05:51:25;;;;;;;12.78;9.90;;;34.10;59.50;;;;;;1850291;77;21091;-84
2022/04/21 05:53:58;;;;;;;15.18;10.08;;;34.20;59.10;;;;;;1840364;76;21165;-85
2022/04/21 05:56:30;;;;;;;18.85;10.55;;;34.40;58.40;;;;;;1835567;77;21118;-84
2022/04/21 05:59:01;;;;;;;14.15;9.23;;;34.40;57.90;;;;;;1846499;77;21060;-85
2022/04/21 06:01:32;;;;;;;12.10;8.88;;;;;;;;;;1871320;76;21087;-85
2022/04/21 06:04:03;;;;;;;12.75;9.90;;;34.50;72.50;;;;;;1858524;76;21150;-85
2022/04/21 06:06:34;;;;;;;13.62;9.95;;;34.50;74.60;;;;;;1854642;76;21139;-85
2022/04/21 06:09:05;;;;;;;13.58;9.70;;;34.40;75.10;;;;;;1876883;76;21110;-84
2022/04/21 06:11:38;;;;;;;14.53;9.88;;;34.30;77.20;;;;;;1871682;76;21243;-85
2022/04/21 06:14:09;;;;;;;14.45;9.68;;;34.10;79.70;;;;;;1847250;76;21060;-83
2022/04/21 06:16:40;;;;;;;13.88;9.43;;;34.10;79.50;;;;;;1826265;76;21091;-83
2022/04/21 06:19:11;;;;;;;13.20;9.73;;;34.10;80.10;;;;;;1878321;76;21228;-84
2022/04/21 06:21:42;;;;;;;15.43;9.88;;;34.10;80.20;;;;;;1866617;76;21070;-84
2022/04/21 06:24:15;;;;;;;13.15;9.35;;;34.00;80.50;;;;;;1838846;77;21208;-85
2022/04/21 06:26:49;;;;;;;15.80;9.43;;;34.10;80.40;;;;;;1870260;76;21075;-84
2022/04/21 06:29:20;;;;;;;12.63;9.95;;;34.10;81.00;;;;;;1857455;76;21090;-84
2022/04/21 06:31:51;;;;;;;13.20;9.48;;;34.00;80.40;;;;;;1847896;76;21106;-84
2022/04/21 06:34:22;;;;;;;16.42;11.00;;;33.90;80.50;;;;;;1865443;76;21125;-85
2022/04/21 06:36:53;;;;;;;13.80;9.70;;;33.80;81.10;;;;;;1874105;76;21217;-84
2022/04/21 06:39:24;;;;;;;12.07;9.58;;;33.70;81.20;;;;;;1853020;76;21137;-84
2022/04/21 06:41:57;;;;;;;14.68;9.80;;;33.60;80.80;;;;;;1852698;76;21097;-84
2022/04/21 06:49:35;;;;;;;11.85;10.00;;;33.40;81.00;;;;;;1855460;76;21427;-84
2022/04/21 06:52:07;;;;;;;17.60;11.00;;;33.30;80.40;;;;;;1859814;75;21098;-84
2022/04/21 06:54:38;;;;;;;13.58;10.78;;;33.30;80.90;;;;;;1870565;76;21531;-82
2022/04/21 06:57:09;;;;;;;15.80;10.20;;;33.20;81.80;;;;;;1875531;76;21062;-84
2022/04/21 06:59:40;;;;;;;15.32;10.88;;;33.30;81.10;;;;;;1867455;75;21058;-83
2022/04/21 07:02:12;;;;;;;16.75;11.20;;;33.20;81.80;;;;;;1858223;76;21169;-83
2022/04/21 07:04:44;;;;;;;14.85;10.50;;;33.20;81.60;;;;;;1852914;76;21090;-82
2022/04/21 07:07:18;;;;;;;16.95;11.83;;;33.30;82.50;;;;;;1847746;76;21079;-82
2022/04/21 07:09:49;;;;;;;15.45;11.63;;;33.30;83.50;;;;;;1829752;77;21158;-84
2022/04/21 07:12:20;;;;;;;14.80;10.10;;;33.20;83.30;;;;;;1872037;76;21087;-84
2022/04/21 07:14:51;;;;;;;14.60;11.18;;;33.30;83.20;;;;;;1847568;76;21054;-84
2022/04/21 07:17:25;;;;;;;15.72;10.68;;;33.40;81.90;;;;;;1864692;76;21161;-84
2022/04/21 07:19:55;;;;;;;18.00;11.78;;;33.30;82.50;;;;;;1867234;76;21180;-85
2022/04/21 07:22:27;;;;;;;17.48;12.20;;;33.40;82.90;;;;;;1861883;76;21107;-85
2022/04/21 07:24:59;;;;;;;14.60;11.88;;;33.40;82.70;;;;;;1806149;78;21628;-85
2022/04/21 07:27:30;;;;;;;13.38;10.63;;;33.40;82.70;;;;;;1858679;76;21646;-84
2022/04/21 07:30:06;;;;;;;14.33;10.65;;;33.40;82.20;;;;;;1857064;76;21680;-84
2022/04/21 07:32:37;;;;;;;15.98;10.95;;;33.50;81.80;;;;;;1859292;76;21059;-84
2022/04/21 07:35:08;;;;;;;14.98;11.05;;;33.50;81.20;;;;;;1870956;76;21142;-83
2022/04/21 07:37:40;;;;;;;15.93;12.03;;;33.70;81.30;;;;;;1862244;76;21095;-83
2022/04/21 07:40:15;;;;;;;17.02;11.95;;;33.60;82.00;;;;;;1843926;78;21621;-83
2022/04/21 07:42:48;;;;;;;15.50;11.40;;;33.70;81.30;;;;;;1856751;76;21095;-84
2022/04/21 07:45:19;;;;;;;16.42;11.45;;;33.80;81.50;;;;;;1864031;76;21099;-84
2022/04/21 07:47:50;;;;;;;15.25;11.33;;;33.80;80.60;;;;;;1863843;76;21229;-83
2022/04/21 07:50:24;;;;;;;14.70;10.53;;;34.00;80.30;;;;;;1863106;76;21145;-84
2022/04/21 07:55:30;;;;;;;15.58;11.30;;;34.10;79.50;;;;;;1862054;76;21141;-84
2022/04/21 07:58:00;;;;;;;13.28;10.50;;;34.00;79.40;;;;;;1867899;76;21091;-84
2022/04/21 08:00:38;;;;;;;19.23;11.55;;;34.10;79.70;;;;;;1864593;76;21051;-85
2022/04/21 08:03:09;;;;;;;14.63;10.23;;;34.10;80.20;;;;;;1863354;75;21537;-84
2022/04/21 08:05:41;;;;;;;16.80;11.95;;;34.20;78.80;;;;;;1889159;75;21598;-83
2022/04/21 08:08:13;;;;;;;14.53;11.18;;;34.30;79.20;;;;;;1843690;76;21153;-83
2022/04/21 08:10:44;;;;;;;12.58;10.85;;;34.20;79.90;;;;;;1820657;78;21220;-84
2022/04/21 08:13:17;;;;;;;14.18;10.80;;;34.20;79.50;;;;;;1843661;77;21083;-83
2022/04/21 08:15:49;;;;;;;16.90;12.82;;;34.00;78.90;;;;;;1846307;77;21079;-83
2022/04/21 08:18:20;;;;;;;15.10;11.43;;;34.10;79.40;;;;;;1854661;77;21085;-81
2022/04/21 08:20:58;;;;;;;15.98;10.60;;;34.00;61.70;;;;;;1859137;77;21059;-82
2022/04/21 08:23:28;;;;;;;16.95;11.28;;;33.90;62.20;;;;;;1837102;77;21163;-85
2022/04/21 08:33:40;;;;;;;18.05;10.50;;;33.60;63.90;;;;;;1840735;77;21243;-83
2022/04/21 08:36:12;;;;;;;18.42;12.40;;;33.60;64.00;;;;;;1841130;77;21378;-83
2022/04/21 08:38:43;;;;;;;15.75;10.60;;;33.70;64.70;;;;;;1836298;77;21051;-85
2022/04/21 08:41:17;;;;;;;14.93;10.58;;;33.60;63.40;;;;;;1838893;77;21129;-84
2022/04/21 08:43:48;;;;;;;14.55;10.70;;;33.70;63.60;;;;;;1851620;77;21145;-85
2022/04/21 08:46:21;;;;;;;15.03;10.75;;;33.60;63.30;;;;;;1826807;77;21133;-83
2022/04/21 08:48:53;;;;;;;14.55;10.13;;;33.60;63.70;;;;;;1844253;77;21091;-84
2022/04/21 08:51:25;;;;;;;16.02;11.08;;;33.50;63.50;;;;;;1837659;77;21142;-82
2022/04/21 08:53:57;;;;;;;18.50;11.80;;;33.50;63.70;;;;;;1841476;77;21129;-82
2022/04/21 08:56:29;;;;;;;16.95;12.45;;;33.40;64.80;;;;;;1840975;77;21264;-83
2022/04/21 08:59:02;;;;;;;16.25;12.35;;;33.50;66.60;;;;;;1830980;77;21091;-84
2022/04/21 09:01:34;;;;;;;17.30;12.33;;;33.40;67.00;;;;;;1857180;76;21095;-83
2022/04/21 09:04:05;;;;;;;17.73;13.25;;;33.40;67.30;;;;;;1836388;77;21102;-83
2022/04/21 09:06:38;;;;;;;17.90;12.80;;;33.30;66.90;;;;;;1852962;77;21107;-83
2022/04/21 09:09:11;;;;;;;22.37;13.20;;;33.30;66.90;;;;;;1837503;77;21292;-83
2022/04/21 09:11:43;;;;;;;17.67;13.35;;;33.30;66.20;;;;;;1829479;77;21126;-83
2022/04/21 09:14:17;;;;;;;20.10;12.40;;;33.20;67.10;;;;;;1829548;77;21091;-82
2022/04/21 09:16:49;;;;;;;20.05;12.25;;;33.20;68.00;;;;;;1829410;78;21107;-84
2022/04/21 09:19:20;;;;;;;17.77;12.00;;;33.20;68.70;;;;;;1833282;77;21150;-83
2022/04/21 09:21:56;;;;;;;20.02;11.60;;;33.20;68.60;;;;;;1845568;77;21091;-83
2022/04/21 09:24:28;;;;;;;18.90;11.83;;;33.20;69.00;;;;;;1849580;77;21095;-83
2022/04/21 09:27:00;;;;;;;19.37;11.57;;;33.00;68.70;;;;;;1839050;77;21146;-84
2022/04/21 09:29:31;;;;;;;15.78;11.12;;;33.10;68.60;;;;;;1828043;77;21157;-83
2022/04/21 09:32:05;;;;;;;17.75;12.07;;;33.00;68.70;;;;;;1857025;77;21596;-83
2022/04/21 09:34:51;;;;;;;17.45;10.80;;;33.00;68.90;;;;;;1851279;77;21127;-85
2022/04/21 09:37:24;;;;;;;18.20;11.08;;;32.90;68.70;;;;;;1802220;78;21177;-83
2022/04/21 09:39:58;;;;;;;14.45;10.65;;;32.90;68.60;;;;;;1827352;78;21154;-85
2022/04/21 09:42:35;;;;;;;16.12;11.70;;;32.90;68.80;;;;;;1794230;78;21620;-83
2022/04/21 09:47:48;;;;;;;17.87;12.03;;;32.90;69.10;;;;;;1804717;78;21134;-83
2022/04/21 09:50:31;;;;;;;17.37;11.80;;;32.90;68.10;;;;;;1793387;78;21111;-84
2022/04/21 09:53:05;;;;;;;15.95;10.75;;;32.90;67.60;;;;;;1803395;78;21178;-83
2022/04/21 09:55:37;;;;;;;14.28;11.83;;;32.90;67.10;;;;;;1810458;78;21244;-85
2022/04/21 09:58:15;;;;;;;18.05;11.38;;;32.90;67.20;;;;;;1817173;78;21499;-83
2022/04/21 10:00:46;;;;;;;18.42;11.85;;;32.80;66.60;;;;;;1800604;78;21297;-84
2022/04/21 10:03:20;;;;;;;16.25;11.80;;;32.70;66.50;;;;;;1798280;79;21208;-84
2022/04/21 10:05:52;;;;;;;20.48;11.35;;;32.80;66.90;;;;;;1800138;78;21158;-84
2022/04/21 10:08:25;;;;;;;17.92;11.70;;;32.70;67.10;;;;;;1799936;78;21118;-84
2022/04/21 10:10:58;;;;;;;16.57;11.73;;;32.70;67.40;;;;;;1758406;80;21166;-84
2022/04/21 10:13:31;;;;;;;14.38;11.70;;;32.70;67.80;;;;;;1786849;79;21110;-82
2022/04/21 10:16:07;;;;;;;15.32;12.00;;;32.70;68.30;;;;;;1799599;78;21173;-84
2022/04/21 10:18:41;;;;;;;16.40;11.53;;;32.70;68.30;;;;;;1784959;79;21108;-83
2022/04/21 10:21:18;;;;;;;17.27;11.20;;;32.60;68.40;;;;;;1799706;78;21205;-85
2022/04/21 10:23:58;;;;;;;15.53;11.57;;;32.60;68.30;;;;;;1796699;77;21107;-84
2022/04/21 10:26:36;;;;;;;19.57;12.73;;;32.60;68.50;;;;;;1814103;78;21195;-84
2022/04/21 10:29:11;;;;;;;15.63;11.88;;;32.60;69.00;;;;;;1798649;79;21193;-84
2022/04/21 10:31:45;;;;;;;16.30;12.35;;;32.60;68.60;;;;;;1806894;78;21593;-84
2022/04/21 10:34:21;;;;;;;19.85;12.98;;;32.60;68.90;;;;;;1794717;79;21103;-84
2022/04/21 10:36:54;;;;;;;16.12;12.25;;;32.60;68.80;;;;;;1796910;79;21236;-84
2022/04/21 10:39:30;;;;;;;14.93;12.20;;;32.60;69.00;;;;;;1795041;79;21076;-84
2022/04/21 10:42:03;;;;;;;17.95;12.75;;;32.60;69.20;;;;;;1802834;78;21145;-84
2022/04/21 10:44:37;;;;;;;20.02;12.18;;;32.50;69.40;;;;;;1807799;79;21233;-83
2022/04/21 10:47:10;;;;;;;17.92;13.10;;;32.50;69.20;;;;;;1802866;79;21088;-83
2022/04/21 10:49:44;;;;;;;17.37;12.03;;;32.50;69.10;;;;;;1805539;78;21182;-83
2022/04/21 10:57:31;;;;;;;24.90;13.93;;;32.50;68.20;;;;;;1808305;79;21184;-83
2022/04/21 11:00:08;;;;;;;21.60;13.58;;;32.50;69.20;;;;;;1791198;79;21115;-82
2022/04/21 11:02:44;;;;;;;19.40;12.25;;;32.40;69.50;;;;;;1807989;78;21086;-82
2022/04/21 11:05:18;;;;;;;17.37;12.05;;;32.40;69.00;;;;;;1819310;77;21158;-82
2022/04/21 11:07:51;;;;;;;17.23;12.95;;;32.40;68.90;;;;;;1808090;79;21099;-83
2022/04/21 11:10:25;;;;;;;21.73;13.43;;;32.30;69.40;;;;;;1791904;79;21117;-84
2022/04/21 11:12:56;;;;;;;19.65;12.23;;;32.30;69.30;;;;;;1809711;77;21066;-84
2022/04/21 11:15:31;;;;;;;20.08;13.10;;;32.30;69.60;;;;;;1800829;79;21135;-85
2022/04/21 11:18:04;;;;;;;18.10;12.47;;;32.20;69.50;;;;;;1812584;78;21087;-85
2022/04/21 11:20:37;;;;;;;19.17;12.93;;;32.20;70.00;;;;;;1802627;79;21535;-83
2022/04/21 11:23:11;;;;;;;19.90;12.58;;;32.20;69.30;;;;;;1798445;79;21285;-85
2022/04/21 11:25:43;;;;;;;18.90;12.25;;;32.10;69.30;;;;;;1803460;79;21233;-85
2022/04/21 11:28:19;;;;;;;22.17;13.22;;;32.10;68.70;;;;;;1799587;79;21149;-84
2022/04/21 11:30:51;;;;;;;17.50;12.03;;;32.10;69.30;;;;;;1798984;77;21142;-85
2022/04/21 11:33:23;;;;;;;19.92;13.00;;;32.00;69.20;;;;;;1795831;78;21141;-83
2022/04/21 11:35:56;;;;;;;23.52;12.65;;;32.00;66.90;;;;;;1799854;79;21107;-83
2022/04/21 11:38:29;;;;;;;19.48;13.62;;;32.00;65.60;;;;;;1791206;79;21095;-85
2022/04/21 11:41:02;;;;;;;18.23;12.10;;;32.00;65.70;;;;;;1798211;79;21261;-85
2022/04/21 11:43:40;;;;;;;22.05;13.22;;;32.00;65.70;;;;;;1802480;79;21165;-86
2022/04/21 11:46:12;;;;;;;17.32;13.05;;;31.90;65.30;;;;;;1798003;78;21099;-83
2022/04/21 11:48:44;;;;;;;20.70;13.15;;;31.90;65.30;;;;;;1809252;78;21154;-83
2022/04/21 11:51:17;;;;;;;24.32;14.43;;;31.90;65.50;;;;;;1800407;78;21158;-84
2022/04/21 11:53:50;;;;;;;;;;;31.90;65.60;;;;;;1798545;79;21099;-84
2022/04/21 11:56:22;;;;;;;20.20;14.33;;;31.90;65.50;;;;;;1814478;79;20188;-83
2022/04/21 11:58:56;;;;;;;18.00;13.88;;;31.80;65.50;;;;;;1814029;77;21150;-85
2022/04/21 12:06:44;;;;;;;17.82;13.65;;;31.70;66.00;;;;;;1823635;78;21154;-84
2022/04/21 12:09:19;;;;;;;19.82;13.32;;;31.70;66.10;;;;;;1868683;76;21322;-84
2022/04/21 12:11:52;;;;;;;20.72;13.98;;;31.70;66.40;;;;;;1871260;76;21084;-84
2022/04/21 12:14:24;;;;;;;19.30;13.93;;;31.60;66.40;;;;;;1861779;76;21062;-83
2022/04/21 12:16:57;;;;;;;20.25;13.75;;;31.60;66.60;;;;;;1873222;76;21137;-85
2022/04/21 12:19:33;;;;;;;20.60;13.28;;;31.50;66.90;;;;;;1861539;76;21094;-84
2022/04/21 12:22:11;;;;;;;18.92;13.13;;;31.50;67.30;;;;;;1868128;76;21118;-84
2022/04/21 12:24:44;;;;;;;17.45;13.05;;;31.50;67.30;;;;;;1830390;76;21156;-84
2022/04/21 12:27:17;;;;;;;22.73;13.60;;;31.40;67.50;;;;;;1812477;79;21189;-84
2022/04/21 12:29:57;;;;;;;22.00;14.70;;;31.40;67.60;;;;;;1840605;77;21511;-85
2022/04/21 12:32:43;;;;;;;22.90;13.60;;;31.30;67.90;;;;;;1843644;77;21087;-83
2022/04/21 12:35:13;;;;;;;19.80;13.43;;;31.40;67.90;;;;;;1837822;77;21126;-86
2022/04/21 12:37:50;;;;;;;23.87;14.30;;;31.40;68.10;;;;;;1844503;77;21190;-83
2022/04/21 12:40:22;;;;;;;25.37;14.35;;;31.30;67.90;;;;;;1842878;77;21075;-83
2022/04/21 12:42:55;;;;;;;23.25;14.68;;;31.40;68.20;;;;;;1839545;77;21542;-84
2022/04/21 12:45:27;;;;;;;24.07;15.08;;;31.30;68.40;;;;;;1836799;77;21272;-82
2022/04/21 12:48:02;;;;;;;25.43;15.65;;;31.30;68.40;;;;;;1847161;77;21080;-84
2022/04/21 12:50:36;;;;;;;21.87;14.85;;;31.30;68.50;;;;;;1844440;77;21130;-83
2022/04/21 12:53:06;;;;;;;23.02;13.68;;;31.30;68.80;;;;;;1819441;78;21154;-84
2022/04/21 12:55:37;;;;;;;18.98;14.85;;;31.20;68.70;;;;;;1857258;76;21094;-83
2022/04/21 12:58:11;;;;;;;21.75;15.35;;;31.20;68.80;;;;;;1862284;76;21261;-85
2022/04/21 13:00:45;;;;;;;25.60;14.43;;;31.20;68.90;;;;;;1862294;76;21558;-84
2022/04/21 13:03:16;;;;;;;18.45;14.15;;;31.10;69.00;;;;;;1852837;76;21172;-84
2022/04/21 13:05:50;;;;;;;18.82;14.63;;;31.10;69.40;;;;;;1862952;76;21288;-84
2022/04/21 13:08:27;;;;;;;;;;;31.10;69.10;;;;;;1858905;77;21082;-84
2022/04/21 13:10:58;;;;;;;22.20;14.18;;;31.10;69.00;;;;;;1850339;77;20239;-84
2022/04/21 13:13:29;;;;;;;20.15;15.25;;;31.10;69.30;;;;;;1858725;76;21259;-84
2022/04/21 13:16:05;;;;;;;25.92;14.78;;;31.10;69.50;;;;;;1856703;77;21161;-84
2022/04/21 13:18:37;;;;;;;22.13;15.10;;;31.00;69.30;;;;;;1851150;76;21154;-84
2022/04/21 13:23:40;;;;;;;24.30;16.17;;;31.10;69.20;;;;;;1818717;77;21244;-83
2022/04/21 13:26:11;;;;;;;22.48;15.43;;;31.10;69.20;;;;;;1845184;77;21212;-84
2022/04/21 13:28:44;;;;;;;24.30;15.90;;;31.10;69.20;;;;;;1784480;78;21654;-84
2022/04/21 13:33:47;;;;;;;30.37;19.82;;;31.10;69.50;;;;;;1798588;79;21106;-83
2022/04/21 13:36:20;;;;;;;23.38;19.25;;;31.00;70.00;;;;;;1800928;77;21214;-82
2022/04/21 13:38:51;;;;;;;26.70;20.72;;;31.00;70.20;;;;;;1801495;79;21161;-83
2022/04/21 13:41:22;;;;;;;25.75;20.12;;;31.00;70.80;;;;;;1774158;80;21133;-83
2022/04/21 13:43:53;;;;;;;25.97;19.07;;;31.00;70.90;;;;;;1770910;80;21114;-83
2022/04/21 13:46:31;;;;;;;26.23;19.32;;;30.80;72.50;;;;;;1781211;79;21100;-84
2022/04/21 13:49:02;;;;;;;29.45;19.50;;;30.90;71.00;;;;;;1789241;79;21160;-83
2022/04/21 13:51:34;;;;;;;27.02;18.30;;;30.90;71.30;;;;;;1778110;79;21107;-84
2022/04/21 13:54:10;;;;;;;29.87;18.50;;;30.80;70.90;;;;;;1787200;79;21090;-82
2022/04/21 13:56:41;;;;;;;25.12;19.65;;;30.80;71.10;;;;;;1803742;78;21680;-83
2022/04/21 13:59:11;;;;;;;25.52;19.60;;;30.80;71.30;;;;;;1776952;78;21141;-83
2022/04/21 14:01:42;;;;;;;29.82;20.57;;;30.80;71.60;;;;;;1781001;79;21107;-85